Time;durP1;ratioP1;P1;durP2;ratioP2;P2;SDS_P1;SDS_P2;PMS_P1;PMS_P2;Temp;Humidity;BMP_temperature;BMP_pressure;BME280_temperature;BME280_humidity;BME280_pressure;Samples;Min_cycle;Max_cycle;Signal;HPM_P1;HPM_P2
2021/07/02 00:02:16;;;;;;;41.27;23.10;;;15.80;94.50;;;;;;5094787;28;20060;-75
2021/07/02 00:04:41;;;;;;;37.57;22.70;;;15.80;94.70;;;;;;5094197;28;20131;-76
2021/07/02 00:07:10;;;;;;;41.63;24.27;;;15.80;94.70;;;;;;5094658;28;20079;-76
2021/07/02 00:09:36;;;;;;;43.33;24.57;;;15.80;94.70;;;;;;5094533;28;20052;-75
2021/07/02 00:12:02;;;;;;;39.73;23.63;;;15.80;94.70;;;;;;5093795;28;20048;-76
2021/07/02 00:14:27;;;;;;;41.30;22.10;;;15.80;94.70;;;;;;5093975;28;20450;-76
2021/07/02 00:16:53;;;;;;;43.63;24.00;;;15.70;94.70;;;;;;5094679;28;20047;-75
2021/07/02 00:19:19;;;;;;;44.23;23.10;;;15.70;94.70;;;;;;5093609;28;20463;-75
2021/07/02 00:21:45;;;;;;;39.47;23.03;;;15.70;94.70;;;;;;5093600;28;20067;-76
2021/07/02 00:24:11;;;;;;;44.87;23.90;;;15.70;94.80;;;;;;5094287;28;20056;-76
2021/07/02 00:26:37;;;;;;;41.83;23.03;;;15.70;94.90;;;;;;5093594;28;20123;-75
2021/07/02 00:29:04;;;;;;;43.17;23.13;;;15.70;94.90;;;;;;5094111;28;20453;-76
2021/07/02 00:31:29;;;;;;;40.33;22.80;;;15.70;94.90;;;;;;5093325;28;20048;-75
2021/07/02 00:33:55;;;;;;;44.20;22.70;;;15.70;95.00;;;;;;5094266;28;20186;-75
2021/07/02 00:36:20;;;;;;;45.93;22.90;;;15.70;95.00;;;;;;5094295;28;20055;-75
2021/07/02 00:38:47;;;;;;;37.57;22.37;;;15.70;95.10;;;;;;5093358;28;20060;-75
2021/07/02 00:41:13;;;;;;;41.03;23.43;;;15.70;95.10;;;;;;5093805;28;20074;-76
2021/07/02 00:43:56;;;;;;;42.20;22.20;;;15.70;95.10;;;;;;5094035;28;20493;-76
2021/07/02 00:46:22;;;;;;;40.83;20.17;;;15.70;95.10;;;;;;5092971;28;20116;-75
2021/07/02 00:48:50;;;;;;;43.70;21.53;;;15.70;95.10;;;;;;5093787;28;20131;-75
2021/07/02 00:51:15;;;;;;;34.50;19.97;;;15.70;95.10;;;;;;5093654;28;20051;-74
2021/07/02 00:53:45;;;;;;;41.53;20.83;;;15.60;95.10;;;;;;5093123;28;20051;-75
2021/07/02 00:56:14;;;;;;;38.43;20.77;;;15.60;95.10;;;;;;5093531;28;20128;-75
2021/07/02 00:58:40;;;;;;;35.63;20.03;;;15.60;95.10;;;;;;5093807;28;20052;-75
2021/07/02 01:01:06;;;;;;;37.40;21.63;;;15.60;95.10;;;;;;5093032;28;20451;-75
2021/07/02 01:03:32;;;;;;;37.47;19.93;;;15.60;95.20;;;;;;5093307;28;20051;-75
2021/07/02 01:05:58;;;;;;;41.63;22.13;;;15.70;95.20;;;;;;5093708;28;20070;-75
2021/07/02 01:08:23;;;;;;;35.77;20.47;;;15.60;95.20;;;;;;5092413;28;20094;-75
2021/07/02 01:10:49;;;;;;;38.67;20.23;;;15.60;95.10;;;;;;5093458;28;20453;-75
2021/07/02 01:13:15;;;;;;;40.77;20.67;;;15.60;95.10;;;;;;5093398;28;20129;-74
2021/07/02 01:15:41;;;;;;;34.17;19.33;;;15.60;95.20;;;;;;5092750;28;20051;-76
2021/07/02 01:18:08;;;;;;;38.93;20.20;;;15.60;95.20;;;;;;5093476;28;20058;-76
2021/07/02 01:20:34;;;;;;;40.47;20.33;;;15.60;95.30;;;;;;5093245;28;20101;-75
2021/07/02 01:23:00;;;;;;;39.90;21.37;;;15.60;95.30;;;;;;5092343;28;20044;-75
2021/07/02 01:25:32;;;;;;;37.77;20.10;;;15.50;95.30;;;;;;5093003;28;20058;-75
2021/07/02 01:27:59;;;;;;;40.27;19.37;;;15.50;95.30;;;;;;5092477;28;20040;-75
2021/07/02 01:30:25;;;;;;;36.10;19.37;;;15.60;95.30;;;;;;5093022;28;20048;-75
2021/07/02 01:32:51;;;;;;;36.80;20.13;;;15.50;95.30;;;;;;5092493;28;20060;-75
2021/07/02 01:35:17;;;;;;;32.27;19.40;;;15.50;95.40;;;;;;5091973;28;20078;-75
2021/07/02 01:37:43;;;;;;;28.23;18.00;;;15.50;95.40;;;;;;5092965;28;20080;-75
2021/07/02 01:40:10;;;;;;;41.00;19.63;;;15.50;95.40;;;;;;5092664;28;20480;-75
2021/07/02 01:42:36;;;;;;;33.00;18.43;;;15.50;95.40;;;;;;5092307;28;20044;-75
2021/07/02 01:45:04;;;;;;;36.93;19.13;;;15.40;95.50;;;;;;5092983;28;20100;-74
2021/07/02 01:47:29;;;;;;;35.03;18.60;;;15.40;95.50;;;;;;5092654;28;20052;-75
2021/07/02 01:49:55;;;;;;;33.00;17.97;;;15.40;95.50;;;;;;5092070;28;20507;-75
2021/07/02 01:52:21;;;;;;;30.47;18.43;;;15.40;95.60;;;;;;5092473;28;20606;-74
2021/07/02 01:54:46;;;;;;;35.07;17.73;;;15.40;95.60;;;;;;5092649;28;20453;-75
2021/07/02 01:57:24;;;;;;;29.77;16.53;;;15.50;96.10;;;;;;5091795;28;20054;-75
2021/07/02 01:59:50;;;;;;;40.13;17.97;;;15.50;95.60;;;;;;5092847;28;20050;-75
2021/07/02 02:02:16;;;;;;;36.07;18.67;;;15.50;95.70;;;;;;5092352;28;20093;-75
2021/07/02 02:04:46;;;;;;;34.30;17.67;;;15.50;95.70;;;;;;5091910;28;20466;-75
2021/07/02 02:07:12;;;;;;;28.50;16.47;;;15.50;95.70;;;;;;5092321;28;20051;-75
2021/07/02 02:09:38;;;;;;;35.63;17.70;;;15.50;95.70;;;;;;5092793;28;20044;-76
2021/07/02 02:12:05;;;;;;;30.90;16.63;;;15.50;95.70;;;;;;5092225;28;20385;-75
2021/07/02 02:14:31;;;;;;;27.67;15.83;;;15.50;95.70;;;;;;5092190;28;20554;-75
2021/07/02 02:16:57;;;;;;;25.60;15.73;;;15.50;95.70;;;;;;5092483;28;20044;-75
2021/07/02 02:19:23;;;;;;;38.27;16.80;;;15.50;95.70;;;;;;5092153;28;20078;-75
2021/07/02 02:21:50;;;;;;;24.40;16.17;;;15.50;95.60;;;;;;5092588;28;20056;-75
2021/07/02 02:24:17;;;;;;;28.33;15.77;;;15.50;95.60;;;;;;5091508;28;20060;-75
2021/07/02 02:26:43;;;;;;;24.63;15.13;;;15.50;95.50;;;;;;5092490;28;20126;-75
2021/07/02 02:29:09;;;;;;;23.70;14.90;;;15.50;95.50;;;;;;5092283;28;20055;-75
2021/07/02 02:31:34;;;;;;;26.07;15.17;;;15.50;95.90;;;;;;5091263;28;20044;-74
2021/07/02 02:34:01;;;;;;;30.90;15.10;;;15.50;95.40;;;;;;5092455;28;20048;-75
2021/07/02 02:36:27;;;;;;;29.17;15.73;;;15.50;95.40;;;;;;5092202;28;20044;-75
2021/07/02 02:38:53;;;;;;;29.63;15.93;;;15.50;95.40;;;;;;5091523;28;20044;-75
2021/07/02 02:41:20;;;;;;;27.63;15.77;;;15.50;95.40;;;;;;5092092;28;20040;-75
2021/07/02 02:43:46;;;;;;;25.87;14.73;;;15.50;95.40;;;;;;5093106;28;20059;-75
2021/07/02 02:46:12;;;;;;;26.50;13.80;;;15.50;95.30;;;;;;5095291;28;20044;-75
2021/07/02 02:48:38;;;;;;;26.87;14.23;;;15.50;95.30;;;;;;5096139;28;20052;-74
2021/07/02 02:51:03;;;;;;;25.07;14.23;;;15.50;95.30;;;;;;5096156;28;20545;-74
2021/07/02 02:53:29;;;;;;;20.27;13.43;;;15.50;95.30;;;;;;5095324;28;20048;-75
2021/07/02 02:55:55;;;;;;;25.17;13.77;;;15.50;95.20;;;;;;5096214;28;20151;-75
2021/07/02 02:58:21;;;;;;;24.10;13.90;;;15.50;95.20;;;;;;5095661;28;20094;-75
2021/07/02 03:00:47;;;;;;;21.13;12.70;;;15.50;95.20;;;;;;5095277;28;20044;-75
2021/07/02 03:03:15;;;;;;;25.57;14.60;;;15.50;95.20;;;;;;5095551;28;20040;-75
2021/07/02 03:05:41;;;;;;;19.10;12.73;;;15.50;95.10;;;;;;5095984;28;20067;-75
2021/07/02 03:08:07;;;;;;;20.10;12.20;;;15.50;95.10;;;;;;5095234;28;20052;-75
2021/07/02 03:10:33;;;;;;;21.80;12.83;;;15.50;95.00;;;;;;5095753;28;20127;-74
2021/07/02 03:12:59;;;;;;;17.00;12.13;;;15.50;95.00;;;;;;5096015;28;20071;-75
2021/07/02 03:15:26;;;;;;;21.30;12.73;;;15.50;95.00;;;;;;5094754;28;20076;-74
2021/07/02 03:17:51;;;;;;;21.03;13.53;;;15.50;94.90;;;;;;5095645;28;20083;-75
2021/07/02 03:20:17;;;;;;;23.37;13.27;;;15.50;94.90;;;;;;5094946;28;20073;-74
2021/07/02 03:22:43;;;;;;;22.53;13.40;;;15.60;94.90;;;;;;5095722;28;20089;-74
2021/07/02 03:25:12;;;;;;;18.97;12.23;;;15.60;94.80;;;;;;5095236;28;20040;-74
2021/07/02 03:27:39;;;;;;;22.23;13.10;;;15.60;94.80;;;;;;5094799;28;20055;-75
2021/07/02 03:30:07;;;;;;;21.23;12.73;;;15.60;94.80;;;;;;5095377;28;20048;-75
2021/07/02 03:32:33;;;;;;;20.43;12.50;;;15.60;94.70;;;;;;5094933;28;20136;-75
2021/07/02 03:34:59;;;;;;;21.23;12.33;;;15.60;94.60;;;;;;5094743;28;20076;-75
2021/07/02 03:37:25;;;;;;;20.13;11.00;;;15.60;94.60;;;;;;5094947;28;20504;-75
2021/07/02 03:39:51;;;;;;;20.93;11.97;;;15.50;94.90;;;;;;5095395;28;20136;-75
2021/07/02 03:42:17;;;;;;;21.83;12.17;;;15.60;94.50;;;;;;5094279;28;20055;-75
2021/07/02 03:44:43;;;;;;;19.80;12.13;;;15.60;94.50;;;;;;5095200;28;20476;-75
2021/07/02 03:47:08;;;;;;;19.87;12.30;;;15.50;94.50;;;;;;5095134;28;20067;-75
2021/07/02 03:49:34;;;;;;;20.50;12.40;;;15.50;94.50;;;;;;5094265;28;20089;-75
2021/07/02 03:52:00;;;;;;;23.33;12.10;;;15.50;94.40;;;;;;5095079;28;20432;-74
2021/07/02 03:54:26;;;;;;;25.40;12.03;;;15.50;94.40;;;;;;5094326;28;20044;-75
2021/07/02 03:59:43;;;;;;;19.50;12.43;;;15.50;94.50;;;;;;5094926;28;20044;-75
2021/07/02 04:02:09;;;;;;;19.23;12.27;;;15.50;94.50;;;;;;5094541;28;20048;-74
2021/07/02 04:04:40;;;;;;;19.17;11.80;;;15.50;94.50;;;;;;5094182;28;20052;-74
2021/07/02 04:07:07;;;;;;;22.55;12.82;;;15.50;94.50;;;;;;5094830;28;20485;-74
2021/07/02 04:09:33;;;;;;;19.47;12.57;;;15.50;94.40;;;;;;5093572;28;20416;-74
2021/07/02 04:11:59;;;;;;;23.97;13.37;;;15.40;94.40;;;;;;5094483;28;20051;-74
2021/07/02 04:14:26;;;;;;;21.57;13.37;;;15.40;94.50;;;;;;5094339;28;20068;-75
2021/07/02 04:16:52;;;;;;;25.00;12.57;;;15.40;94.50;;;;;;5093917;28;20140;-74
2021/07/02 04:19:17;;;;;;;23.00;13.97;;;15.50;95.00;;;;;;5094227;28;20457;-74
2021/07/02 04:21:43;;;;;;;24.10;12.50;;;15.40;94.60;;;;;;5094420;28;20488;-74
2021/07/02 04:24:09;;;;;;;25.43;14.27;;;15.40;94.60;;;;;;5093283;28;20086;-75
2021/07/02 04:26:34;;;;;;;24.43;13.83;;;15.40;94.70;;;;;;5094187;28;20040;-74
2021/07/02 04:29:00;;;;;;;23.53;13.90;;;15.40;94.70;;;;;;5094222;28;20181;-74
2021/07/02 04:31:26;;;;;;;22.37;12.27;;;15.40;94.70;;;;;;5093231;28;20169;-74
2021/07/02 04:33:52;;;;;;;26.37;13.97;;;15.40;94.70;;;;;;5093743;28;20155;-74
2021/07/02 04:36:17;;;;;;;27.20;13.53;;;15.40;94.80;;;;;;5093858;28;20508;-74
2021/07/02 04:38:43;;;;;;;26.83;13.93;;;15.40;94.80;;;;;;5093178;28;20059;-74
2021/07/02 04:41:09;;;;;;;22.67;13.07;;;15.40;94.80;;;;;;5093639;28;20477;-74
2021/07/02 04:43:35;;;;;;;25.87;13.53;;;15.50;94.80;;;;;;5094030;28;20047;-74
2021/07/02 04:46:01;;;;;;;35.57;14.17;;;15.50;94.80;;;;;;5093236;28;20040;-74
2021/07/02 04:48:27;;;;;;;20.07;12.17;;;15.60;94.90;;;;;;5093581;28;20059;-74
2021/07/02 04:50:52;;;;;;;22.43;13.53;;;15.60;94.80;;;;;;5093809;28;20040;-75
2021/07/02 04:53:19;;;;;;;25.07;14.70;;;15.70;94.80;;;;;;5092647;28;20044;-74
2021/07/02 04:55:44;;;;;;;28.90;15.03;;;15.70;94.70;;;;;;5093529;28;20040;-75
2021/07/02 04:58:11;;;;;;;21.83;13.50;;;15.70;94.70;;;;;;5093164;28;20473;-74
2021/07/02 05:00:38;;;;;;;28.47;15.27;;;15.70;94.70;;;;;;5092725;28;20048;-73
2021/07/02 05:03:04;;;;;;;25.90;14.73;;;15.70;95.20;;;;;;5092973;28;20075;-73
2021/07/02 05:05:30;;;;;;;23.53;15.10;;;15.80;94.80;;;;;;5092893;28;20051;-72
2021/07/02 05:07:56;;;;;;;25.67;15.03;;;15.80;94.80;;;;;;5091659;28;20048;-74
2021/07/02 05:10:22;;;;;;;29.83;15.07;;;15.80;94.80;;;;;;5092569;28;20051;-74
2021/07/02 05:12:48;;;;;;;24.27;15.70;;;15.80;94.80;;;;;;5093013;28;20044;-73
2021/07/02 05:15:13;;;;;;;23.30;15.00;;;15.90;95.20;;;;;;5092368;28;20126;-72
2021/07/02 05:17:43;;;;;;;27.67;16.20;;;15.90;94.80;;;;;;5092916;28;20047;-73
2021/07/02 05:20:09;;;;;;;30.47;17.93;;;15.90;94.80;;;;;;5092163;28;20105;-73
2021/07/02 05:22:35;;;;;;;33.63;19.17;;;15.90;94.80;;;;;;5093032;28;20431;-73
2021/07/02 05:25:01;;;;;;;33.03;18.17;;;16.00;94.80;;;;;;5093500;28;20052;-75
2021/07/02 05:27:27;;;;;;;28.43;17.77;;;16.00;94.70;;;;;;5092159;28;20469;-72
2021/07/02 05:29:53;;;;;;;29.07;17.00;;;16.10;94.60;;;;;;5093093;28;20139;-71
2021/07/02 05:32:18;;;;;;;27.40;17.13;;;16.10;94.60;;;;;;5092440;28;20384;-71
2021/07/02 05:34:44;;;;;;;28.80;17.77;;;16.00;94.50;;;;;;5092067;28;20051;-71
2021/07/02 05:37:10;;;;;;;26.70;16.80;;;16.00;94.50;;;;;;5092515;28;20048;-72
2021/07/02 05:39:35;;;;;;;27.63;16.73;;;16.00;94.60;;;;;;5092665;28;20168;-72
2021/07/02 05:42:01;;;;;;;25.60;16.20;;;16.00;94.60;;;;;;5091984;28;20048;-72
2021/07/02 05:44:27;;;;;;;26.30;17.07;;;16.00;94.60;;;;;;5092415;28;20518;-72
2021/07/02 05:46:52;;;;;;;26.60;15.70;;;16.00;94.60;;;;;;5092791;28;20511;-71
2021/07/02 05:49:19;;;;;;;25.27;16.13;;;16.00;94.60;;;;;;5091255;28;20109;-72
2021/07/02 05:51:44;;;;;;;25.80;15.83;;;15.90;94.60;;;;;;5092500;28;20052;-72
2021/07/02 05:54:12;;;;;;;20.37;15.13;;;15.90;94.60;;;;;;5092204;28;20055;-73
2021/07/02 05:56:37;;;;;;;24.23;16.63;;;15.90;95.10;;;;;;5091674;28;20521;-72
2021/07/02 05:59:03;;;;;;;25.47;15.07;;;15.90;94.70;;;;;;5092463;28;20044;-73
2021/07/02 06:01:29;;;;;;;25.20;16.13;;;15.90;94.70;;;;;;5092203;28;20067;-74
2021/07/02 06:03:55;;;;;;;24.00;15.23;;;16.00;94.70;;;;;;5091666;28;20050;-74
2021/07/02 06:06:21;;;;;;;20.83;14.73;;;15.90;94.70;;;;;;5092174;28;20064;-72
2021/07/02 06:08:49;;;;;;;20.30;15.30;;;16.00;94.70;;;;;;5092183;28;20048;-73
2021/07/02 06:11:15;;;;;;;20.17;15.17;;;16.00;94.70;;;;;;5091376;28;20044;-73
2021/07/02 06:13:44;;;;;;;19.80;14.37;;;15.90;94.70;;;;;;5092439;28;20090;-72
2021/07/02 06:16:09;;;;;;;18.60;14.53;;;16.00;94.70;;;;;;5091042;28;20506;-72
2021/07/02 06:18:35;;;;;;;21.47;15.67;;;16.00;94.70;;;;;;5092681;28;20127;-72
2021/07/02 06:21:01;;;;;;;26.03;14.47;;;16.00;94.60;;;;;;5096457;28;20113;-73
2021/07/02 06:23:33;;;;;;;19.37;14.47;;;16.00;94.60;;;;;;5095747;28;20056;-72
2021/07/02 06:26:04;;;;;;;20.90;14.63;;;16.00;94.60;;;;;;5096517;28;20044;-72
2021/07/02 06:28:30;;;;;;;20.70;13.70;;;16.00;95.00;;;;;;5096112;28;20048;-72
2021/07/02 06:30:56;;;;;;;21.33;14.23;;;16.10;94.60;;;;;;5095657;28;20063;-72
2021/07/02 06:33:23;;;;;;;16.73;12.20;;;16.00;94.60;;;;;;5095624;28;20369;-72
2021/07/02 06:35:49;;;;;;;19.67;13.53;;;16.10;94.60;;;;;;5096201;28;20040;-72
2021/07/02 06:38:16;;;;;;;19.10;13.63;;;16.10;94.50;;;;;;5095264;28;20040;-72
2021/07/02 06:40:43;;;;;;;17.03;12.13;;;16.10;94.50;;;;;;5096208;28;20060;-73
2021/07/02 06:43:08;;;;;;;17.77;13.27;;;16.10;94.50;;;;;;5096075;28;20048;-72
2021/07/02 06:45:40;;;;;;;18.40;12.27;;;16.10;94.50;;;;;;5095426;28;20068;-74
2021/07/02 06:48:06;;;;;;;15.73;12.37;;;16.10;94.50;;;;;;5095945;28;20074;-74
2021/07/02 06:50:37;;;;;;;18.17;11.97;;;16.10;94.60;;;;;;5096273;28;20052;-75
2021/07/02 06:53:05;;;;;;;18.70;12.20;;;16.10;94.60;;;;;;5094821;28;20166;-73
2021/07/02 06:55:52;;;;;;;20.33;12.60;;;16.10;94.50;;;;;;5095145;28;20189;-73
2021/07/02 06:58:21;;;;;;;20.80;13.03;;;16.10;94.50;;;;;;5095029;28;20051;-73
2021/07/02 07:00:47;;;;;;;19.00;13.27;;;16.10;94.50;;;;;;5095749;28;20109;-72
2021/07/02 07:03:13;;;;;;;21.60;13.00;;;16.10;94.50;;;;;;5095508;28;20484;-72
2021/07/02 07:05:40;;;;;;;18.93;13.80;;;16.10;94.50;;;;;;5094835;28;20062;-74
2021/07/02 07:08:08;;;;;;;17.40;13.10;;;16.10;94.40;;;;;;5095387;28;20040;-73
2021/07/02 07:10:35;;;;;;;17.40;13.30;;;16.10;94.40;;;;;;5095620;28;20427;-71
2021/07/02 07:13:03;;;;;;;21.30;12.80;;;16.10;94.40;;;;;;5094912;28;20048;-73
2021/07/02 07:15:29;;;;;;;21.17;13.37;;;16.20;94.50;;;;;;5095492;28;20052;-72
2021/07/02 07:17:55;;;;;;;20.67;14.00;;;16.20;94.50;;;;;;5095090;28;20048;-72
2021/07/02 07:20:21;;;;;;;23.63;14.70;;;16.30;94.40;;;;;;5093998;28;20059;-72
2021/07/02 07:22:47;;;;;;;23.80;15.40;;;16.30;94.20;;;;;;5095076;28;20122;-73
2021/07/02 07:25:13;;;;;;;25.50;14.77;;;16.30;94.10;;;;;;5095144;28;20056;-72
2021/07/02 07:27:48;;;;;;;24.73;15.27;;;16.30;94.20;;;;;;5094465;28;20044;-73
2021/07/02 07:30:15;;;;;;;22.27;14.63;;;16.30;94.20;;;;;;5094604;28;20433;-72
2021/07/02 07:32:46;;;;;;;21.33;14.53;;;16.30;94.20;;;;;;5094958;28;20095;-73
2021/07/02 07:38:07;;;;;;;22.50;14.47;;;16.40;94.20;;;;;;5090023;28;20044;-73
2021/07/02 07:40:33;;;;;;;21.33;14.67;;;16.50;94.30;;;;;;5093799;28;20047;-74
2021/07/02 07:42:59;;;;;;;20.70;13.83;;;16.50;94.10;;;;;;5095029;28;20391;-73
2021/07/02 07:45:25;;;;;;;22.10;13.83;;;16.50;94.10;;;;;;5094399;28;20564;-73
2021/07/02 07:47:51;;;;;;;24.37;14.40;;;16.50;94.00;;;;;;5094051;28;20162;-72
2021/07/02 07:50:25;;;;;;;25.17;14.10;;;16.60;94.00;;;;;;5094074;28;20488;-72
2021/07/02 07:52:58;;;;;;;23.93;14.40;;;16.60;93.90;;;;;;5094587;28;20233;-71
2021/07/02 07:55:28;;;;;;;22.60;14.37;;;16.50;93.80;;;;;;5093643;28;20408;-71
2021/07/02 07:57:55;;;;;;;19.13;13.20;;;16.50;93.80;;;;;;5094805;28;20485;-72
2021/07/02 08:00:21;;;;;;;22.57;15.93;;;16.60;93.90;;;;;;5094493;28;20136;-72
2021/07/02 08:02:47;;;;;;;21.87;13.80;;;16.60;93.90;;;;;;5094053;28;20048;-72
2021/07/02 08:05:14;;;;;;;26.33;14.07;;;16.60;93.90;;;;;;5094440;28;20116;-73
2021/07/02 08:07:42;;;;;;;20.80;14.03;;;16.70;93.90;;;;;;5094303;28;20481;-71
2021/07/02 08:10:11;;;;;;;22.87;14.30;;;16.70;93.80;;;;;;5093731;28;20048;-72
2021/07/02 08:12:38;;;;;;;22.30;13.63;;;16.80;93.70;;;;;;5094538;28;20048;-71
2021/07/02 08:15:09;;;;;;;22.77;14.33;;;16.80;93.60;;;;;;5094385;28;20056;-70
2021/07/02 08:17:36;;;;;;;22.50;14.80;;;16.80;93.50;;;;;;5093464;28;20294;-70
2021/07/02 08:20:03;;;;;;;21.67;13.63;;;16.80;93.60;;;;;;5094459;28;20059;-72
